sensor_id;sensor_type;location;lat;lon;timestamp;pressure;altitude;pressure_sealevel;temperature;humidity
11268;BME280;49397;47.474;9.416;2023-02-17T00:02:03;96436.22;;;10.06;43.35
11268;BME280;49397;47.474;9.416;2023-02-17T00:04:30;96440.31;;;10.08;43.28
11268;BME280;49397;47.474;9.416;2023-02-17T00:06:56;96438.69;;;10.07;43.65
11268;BME280;49397;47.474;9.416;2023-02-17T00:09:22;96437.59;;;10.08;42.90
11268;BME280;49397;47.474;9.416;2023-02-17T00:11:48;96441.66;;;10.06;43.27
11268;BME280;49397;47.474;9.416;2023-02-17T00:14:14;96437.59;;;10.03;43.82
11268;BME280;49397;47.474;9.416;2023-02-17T00:16:40;96438.13;;;10.05;43.14
11268;BME280;49397;47.474;9.416;2023-02-17T00:19:06;96430.84;;;10.01;43.45
11268;BME280;49397;47.474;9.416;2023-02-17T00:21:48;96445.19;;;10.06;43.25
11268;BME280;49397;47.474;9.416;2023-02-17T00:24:14;96451.41;;;10.07;43.21
11268;BME280;49397;47.474;9.416;2023-02-17T00:26:40;96436.28;;;9.96;43.33
11268;BME280;49397;47.474;9.416;2023-02-17T00:29:06;96443.81;;;10.09;43.25
11268;BME280;49397;47.474;9.416;2023-02-17T00:31:31;96445.75;;;10.03;43.50
11268;BME280;49397;47.474;9.416;2023-02-17T00:33:57;96455.81;;;9.93;44.62
11268;BME280;49397;47.474;9.416;2023-02-17T00:36:24;96455.91;;;9.83;44.12
11268;BME280;49397;47.474;9.416;2023-02-17T00:38:50;96456.69;;;9.88;43.95
11268;BME280;49397;47.474;9.416;2023-02-17T00:41:16;96457.78;;;9.87;44.51
11268;BME280;49397;47.474;9.416;2023-02-17T00:43:42;96453.50;;;9.81;44.51
11268;BME280;49397;47.474;9.416;2023-02-17T00:46:08;96455.16;;;9.72;45.16
11268;BME280;49397;47.474;9.416;2023-02-17T00:48:33;96444.56;;;9.76;44.78
11268;BME280;49397;47.474;9.416;2023-02-17T00:50:59;96461.34;;;9.78;44.66
11268;BME280;49397;47.474;9.416;2023-02-17T00:53:24;96451.94;;;9.70;45.23
11268;BME280;49397;47.474;9.416;2023-02-17T00:55:50;96469.78;;;9.76;45.05
11268;BME280;49397;47.474;9.416;2023-02-17T00:58:15;96458.41;;;9.69;45.36
11268;BME280;49397;47.474;9.416;2023-02-17T01:00:41;96459.53;;;9.63;45.61
11268;BME280;49397;47.474;9.416;2023-02-17T01:03:07;96466.84;;;9.68;45.54
11268;BME280;49397;47.474;9.416;2023-02-17T01:05:32;96472.97;;;9.83;44.57
11268;BME280;49397;47.474;9.416;2023-02-17T01:07:58;96474.34;;;9.81;44.55
11268;BME280;49397;47.474;9.416;2023-02-17T01:10:24;96467.91;;;9.72;45.27
11268;BME280;49397;47.474;9.416;2023-02-17T01:12:49;96469.25;;;9.69;45.29
11268;BME280;49397;47.474;9.416;2023-02-17T01:15:15;96467.88;;;9.77;45.03
11268;BME280;49397;47.474;9.416;2023-02-17T01:17:41;96470.88;;;9.75;45.31
11268;BME280;49397;47.474;9.416;2023-02-17T01:20:07;96461.34;;;9.78;44.85
11268;BME280;49397;47.474;9.416;2023-02-17T01:22:32;96467.34;;;9.75;44.75
11268;BME280;49397;47.474;9.416;2023-02-17T01:24:58;96453.00;;;9.69;44.81
11268;BME280;49397;47.474;9.416;2023-02-17T01:27:23;96457.75;;;9.92;45.07
11268;BME280;49397;47.474;9.416;2023-02-17T01:29:49;96453.41;;;9.91;44.58
11268;BME280;49397;47.474;9.416;2023-02-17T01:32:14;96447.75;;;9.88;44.82
11268;BME280;49397;47.474;9.416;2023-02-17T01:34:40;96455.53;;;9.94;44.51
11268;BME280;49397;47.474;9.416;2023-02-17T01:37:05;96456.91;;;9.97;44.54
11268;BME280;49397;47.474;9.416;2023-02-17T01:39:31;96452.81;;;9.99;44.24
11268;BME280;49397;47.474;9.416;2023-02-17T01:41:56;96449.09;;;9.90;44.89
11268;BME280;49397;47.474;9.416;2023-02-17T01:44:23;96452.34;;;9.87;44.81
11268;BME280;49397;47.474;9.416;2023-02-17T01:46:54;96445.25;;;9.91;44.65
11268;BME280;49397;47.474;9.416;2023-02-17T01:49:36;96435.47;;;10.00;43.71
11268;BME280;49397;47.474;9.416;2023-02-17T01:52:13;96436.81;;;9.98;44.54
11268;BME280;49397;47.474;9.416;2023-02-17T01:55:02;96428.41;;;9.99;44.17
11268;BME280;49397;47.474;9.416;2023-02-17T01:57:32;96431.13;;;9.99;44.33
11268;BME280;49397;47.474;9.416;2023-02-17T01:59:59;96428.13;;;10.01;44.28
11268;BME280;49397;47.474;9.416;2023-02-17T02:02:25;96427.13;;;9.92;44.88
11268;BME280;49397;47.474;9.416;2023-02-17T02:04:53;96427.91;;;9.97;44.40
11268;BME280;49397;47.474;9.416;2023-02-17T02:07:28;96435.22;;;9.97;44.48
11268;BME280;49397;47.474;9.416;2023-02-17T02:09:56;96421.06;;;10.05;44.29
11268;BME280;49397;47.474;9.416;2023-02-17T02:12:26;96421.06;;;10.05;44.35
11268;BME280;49397;47.474;9.416;2023-02-17T02:14:55;96420.00;;;10.01;44.64
11268;BME280;49397;47.474;9.416;2023-02-17T02:17:34;96423.81;;;10.00;44.32
11268;BME280;49397;47.474;9.416;2023-02-17T02:21:02;96419.66;;;10.12;43.72
11268;BME280;49397;47.474;9.416;2023-02-17T02:34:29;96408.50;;;10.19;43.42
11268;BME280;49397;47.474;9.416;2023-02-17T02:37:11;96421.34;;;10.08;43.78
11268;BME280;49397;47.474;9.416;2023-02-17T02:39:41;96407.16;;;10.16;43.28
11268;BME280;49397;47.474;9.416;2023-02-17T02:42:15;96413.97;;;10.14;43.61
11268;BME280;49397;47.474;9.416;2023-02-17T02:44:41;96406.94;;;10.13;43.75
11268;BME280;49397;47.474;9.416;2023-02-17T02:47:45;96408.88;;;10.02;44.49
11268;BME280;49397;47.474;9.416;2023-02-17T02:50:15;96404.88;;;9.95;44.56
11268;BME280;49397;47.474;9.416;2023-02-17T02:52:55;96403.16;;;10.04;43.83
11268;BME280;49397;47.474;9.416;2023-02-17T02:58:26;96410.22;;;10.10;43.50
11268;BME280;49397;47.474;9.416;2023-02-17T03:01:11;96417.75;;;10.18;43.26
11268;BME280;49397;47.474;9.416;2023-02-17T03:03:46;96407.16;;;10.16;43.70
11268;BME280;49397;47.474;9.416;2023-02-17T03:06:46;96412.31;;;10.18;42.79
11268;BME280;49397;47.474;9.416;2023-02-17T03:09:13;96401.41;;;10.23;43.37
11268;BME280;49397;47.474;9.416;2023-02-17T03:11:40;96411.47;;;10.22;43.74
11268;BME280;49397;47.474;9.416;2023-02-17T03:14:13;96407.97;;;10.17;44.02
11268;BME280;49397;47.474;9.416;2023-02-17T03:16:40;96408.00;;;10.12;43.97
11268;BME280;49397;47.474;9.416;2023-02-17T03:19:07;96405.53;;;10.15;43.26
11268;BME280;49397;47.474;9.416;2023-02-17T03:21:44;96407.16;;;10.16;43.40
11268;BME280;49397;47.474;9.416;2023-02-17T03:24:11;96404.97;;;10.18;42.85
11268;BME280;49397;47.474;9.416;2023-02-17T03:26:37;96407.09;;;10.21;43.23
11268;BME280;49397;47.474;9.416;2023-02-17T03:29:03;96396.84;;;10.18;43.72
11268;BME280;49397;47.474;9.416;2023-02-17T03:31:28;96401.41;;;10.23;43.31
11268;BME280;49397;47.474;9.416;2023-02-17T03:33:54;96405.78;;;10.19;43.32
11268;BME280;49397;47.474;9.416;2023-02-17T03:36:19;96396.94;;;10.08;44.02
11268;BME280;49397;47.474;9.416;2023-02-17T03:38:45;96401.78;;;10.06;43.92
11268;BME280;49397;47.474;9.416;2023-02-17T03:41:10;96400.16;;;10.10;43.77
11268;BME280;49397;47.474;9.416;2023-02-17T03:43:36;96402.00;;;10.15;43.38
11268;BME280;49397;47.474;9.416;2023-02-17T03:46:01;96405.78;;;10.19;43.87
11268;BME280;49397;47.474;9.416;2023-02-17T03:48:27;96410.44;;;10.13;44.10
11268;BME280;49397;47.474;9.416;2023-02-17T03:50:52;96415.09;;;10.03;44.57
11268;BME280;49397;47.474;9.416;2023-02-17T03:53:18;96420.59;;;9.93;44.68
11268;BME280;49397;47.474;9.416;2023-02-17T03:55:43;96420.81;;;10.01;44.58
11268;BME280;49397;47.474;9.416;2023-02-17T03:58:09;96410.72;;;10.12;43.92
11268;BME280;49397;47.474;9.416;2023-02-17T04:00:34;96404.81;;;10.00;45.05
11268;BME280;49397;47.474;9.416;2023-02-17T04:03:00;96404.00;;;9.99;45.03
11268;BME280;49397;47.474;9.416;2023-02-17T04:05:26;96401.25;;;10.09;44.05
11268;BME280;49397;47.474;9.416;2023-02-17T04:07:51;96402.28;;;10.13;44.12
11268;BME280;49397;47.474;9.416;2023-02-17T04:10:17;96402.88;;;10.10;44.00
11268;BME280;49397;47.474;9.416;2023-02-17T04:12:42;96402.78;;;10.20;43.89
11268;BME280;49397;47.474;9.416;2023-02-17T04:15:08;96395.41;;;10.26;43.37
11268;BME280;49397;47.474;9.416;2023-02-17T04:17:35;96403.66;;;10.16;44.23
11268;BME280;49397;47.474;9.416;2023-02-17T04:20:03;96404.97;;;10.18;44.21
11268;BME280;49397;47.474;9.416;2023-02-17T04:22:29;96404.09;;;10.23;43.84
11268;BME280;49397;47.474;9.416;2023-02-17T04:24:54;96401.66;;;10.26;43.72
11268;BME280;49397;47.474;9.416;2023-02-17T04:27:19;96403.81;;;10.24;43.48
11268;BME280;49397;47.474;9.416;2023-02-17T04:29:45;96401.19;;;10.19;44.01
11268;BME280;49397;47.474;9.416;2023-02-17T04:32:12;96406.78;;;10.28;44.08
11268;BME280;49397;47.474;9.416;2023-02-17T04:34:37;96403.03;;;10.24;44.12
11268;BME280;49397;47.474;9.416;2023-02-17T04:37:03;96401.94;;;10.25;44.58
11268;BME280;49397;47.474;9.416;2023-02-17T04:39:30;96400.00;;;10.30;43.67
11268;BME280;49397;47.474;9.416;2023-02-17T04:41:55;96402.72;;;10.30;43.89
11268;BME280;49397;47.474;9.416;2023-02-17T04:44:21;96401.66;;;10.26;44.21
11268;BME280;49397;47.474;9.416;2023-02-17T04:46:46;96408.22;;;10.20;44.38
11268;BME280;49397;47.474;9.416;2023-02-17T04:49:11;96406.25;;;10.26;44.24
11268;BME280;49397;47.474;9.416;2023-02-17T04:51:37;96410.97;;;10.15;45.29
11268;BME280;49397;47.474;9.416;2023-02-17T04:54:03;96412.38;;;10.08;44.75
11268;BME280;49397;47.474;9.416;2023-02-17T04:56:28;96410.78;;;10.02;45.67
11268;BME280;49397;47.474;9.416;2023-02-17T04:58:53;96405.44;;;9.92;46.34
11268;BME280;49397;47.474;9.416;2023-02-17T05:01:19;96402.41;;;9.98;45.84
11268;BME280;49397;47.474;9.416;2023-02-17T05:03:44;96401.25;;;10.04;46.31
11268;BME280;49397;47.474;9.416;2023-02-17T05:06:10;96402.44;;;9.93;48.10
11268;BME280;49397;47.474;9.416;2023-02-17T05:08:36;96400.84;;;9.87;48.02
11268;BME280;49397;47.474;9.416;2023-02-17T05:11:01;96403.91;;;9.76;51.56
11268;BME280;49397;47.474;9.416;2023-02-17T05:13:26;96394.44;;;9.78;50.58
11268;BME280;49397;47.474;9.416;2023-02-17T05:15:52;96392.81;;;9.72;50.21
11268;BME280;49397;47.474;9.416;2023-02-17T05:18:17;96399.19;;;9.58;51.10
11268;BME280;49397;47.474;9.416;2023-02-17T05:20:43;96394.84;;;9.52;52.01
11268;BME280;49397;47.474;9.416;2023-02-17T05:23:09;96402.78;;;9.43;50.30
11268;BME280;49397;47.474;9.416;2023-02-17T05:25:34;96392.06;;;9.23;52.76
11268;BME280;49397;47.474;9.416;2023-02-17T05:28:00;96395.59;;;9.18;52.20
11268;BME280;49397;47.474;9.416;2023-02-17T05:30:25;96391.84;;;9.09;53.74
11268;BME280;49397;47.474;9.416;2023-02-17T05:32:51;96393.44;;;9.15;52.44
11268;BME280;49397;47.474;9.416;2023-02-17T05:35:16;96381.28;;;9.13;50.80
11268;BME280;49397;47.474;9.416;2023-02-17T05:37:42;96400.41;;;9.27;51.02
11268;BME280;49397;47.474;9.416;2023-02-17T05:40:07;96398.22;;;9.34;49.49
11268;BME280;49397;47.474;9.416;2023-02-17T05:42:33;96390.38;;;9.32;50.59
11268;BME280;49397;47.474;9.416;2023-02-17T05:44:58;96391.97;;;9.38;49.96
11268;BME280;49397;47.474;9.416;2023-02-17T05:47:24;96396.78;;;9.51;49.39
11268;BME280;49397;47.474;9.416;2023-02-17T05:49:50;96399.59;;;9.75;48.69
11268;BME280;49397;47.474;9.416;2023-02-17T05:52:15;96395.03;;;9.70;49.83
11268;BME280;49397;47.474;9.416;2023-02-17T05:54:42;96398.78;;;9.74;50.93
11268;BME280;49397;47.474;9.416;2023-02-17T05:57:08;96399.91;;;9.68;50.84
11268;BME280;49397;47.474;9.416;2023-02-17T05:59:34;96398.84;;;9.64;52.14
11268;BME280;49397;47.474;9.416;2023-02-17T06:01:59;96405.31;;;9.68;51.80
11268;BME280;49397;47.474;9.416;2023-02-17T06:04:25;96396.78;;;9.51;53.04
11268;BME280;49397;47.474;9.416;2023-02-17T06:06:50;96397.63;;;9.47;52.13
11268;BME280;49397;47.474;9.416;2023-02-17T06:09:16;96393.84;;;9.43;54.36
11268;BME280;49397;47.474;9.416;2023-02-17T06:11:42;96394.66;;;9.43;54.18
11268;BME280;49397;47.474;9.416;2023-02-17T06:14:07;96403.25;;;9.50;51.52
11268;BME280;49397;47.474;9.416;2023-02-17T06:16:33;96396.94;;;9.65;52.91
11268;BME280;49397;47.474;9.416;2023-02-17T06:18:58;96403.63;;;9.77;53.62
11268;BME280;49397;47.474;9.416;2023-02-17T06:21:26;96400.47;;;9.65;53.31
11268;BME280;49397;47.474;9.416;2023-02-17T06:23:52;96409.56;;;9.41;54.28
11268;BME280;49397;47.474;9.416;2023-02-17T06:26:17;96400.41;;;9.27;54.48
11268;BME280;49397;47.474;9.416;2023-02-17T06:28:43;96398.34;;;9.13;57.09
11268;BME280;49397;47.474;9.416;2023-02-17T06:31:08;96395.09;;;9.11;55.55
11268;BME280;49397;47.474;9.416;2023-02-17T06:33:34;96410.50;;;9.16;58.11
11268;BME280;49397;47.474;9.416;2023-02-17T06:35:59;96412.09;;;9.17;58.12
11268;BME280;49397;47.474;9.416;2023-02-17T06:38:25;96407.56;;;9.07;58.67
11268;BME280;49397;47.474;9.416;2023-02-17T06:40:50;96411.94;;;8.93;57.96
11268;BME280;49397;47.474;9.416;2023-02-17T06:43:16;96412.78;;;8.79;58.92
11268;BME280;49397;47.474;9.416;2023-02-17T06:45:41;96416.31;;;8.79;61.83
11268;BME280;49397;47.474;9.416;2023-02-17T06:48:07;96421.19;;;8.82;62.95
11268;BME280;49397;47.474;9.416;2023-02-17T06:50:32;96423.09;;;8.82;61.16
11268;BME280;49397;47.474;9.416;2023-02-17T06:52:58;96433.88;;;8.87;60.46
11268;BME280;49397;47.474;9.416;2023-02-17T06:55:23;96426.31;;;8.84;57.95
11268;BME280;49397;47.474;9.416;2023-02-17T06:57:49;96431.72;;;8.89;58.30
11268;BME280;49397;47.474;9.416;2023-02-17T07:00:14;96439.84;;;8.79;57.60
11268;BME280;49397;47.474;9.416;2023-02-17T07:02:40;96435.28;;;8.74;57.23
11268;BME280;49397;47.474;9.416;2023-02-17T07:05:06;96433.66;;;8.78;57.02
11268;BME280;49397;47.474;9.416;2023-02-17T07:07:32;96436.06;;;8.85;58.32
11268;BME280;49397;47.474;9.416;2023-02-17T07:09:57;96439.28;;;8.92;58.13
11268;BME280;49397;47.474;9.416;2023-02-17T07:12:23;96443.31;;;8.99;56.72
11268;BME280;49397;47.474;9.416;2023-02-17T07:14:48;96435.97;;;9.15;57.15
11268;BME280;49397;47.474;9.416;2023-02-17T07:17:14;96434.28;;;9.24;57.27
11268;BME280;49397;47.474;9.416;2023-02-17T07:19:39;96436.69;;;9.31;56.78
11268;BME280;49397;47.474;9.416;2023-02-17T07:22:05;96445.03;;;9.39;56.11
11268;BME280;49397;47.474;9.416;2023-02-17T07:24:30;96446.13;;;9.43;58.18
11268;BME280;49397;47.474;9.416;2023-02-17T07:26:58;96443.72;;;9.37;59.95
11268;BME280;49397;47.474;9.416;2023-02-17T07:29:25;96447.28;;;9.27;62.21
11268;BME280;49397;47.474;9.416;2023-02-17T07:31:51;96451.09;;;9.26;58.47
11268;BME280;49397;47.474;9.416;2023-02-17T07:34:17;96461.34;;;9.29;58.24
11268;BME280;49397;47.474;9.416;2023-02-17T07:36:42;96459.97;;;9.32;57.44
11268;BME280;49397;47.474;9.416;2023-02-17T07:39:08;96455.38;;;9.32;57.58
11268;BME280;49397;47.474;9.416;2023-02-17T07:41:33;96455.31;;;9.42;56.76
11268;BME280;49397;47.474;9.416;2023-02-17T07:43:59;96460.94;;;9.61;57.14
11268;BME280;49397;47.474;9.416;2023-02-17T07:46:26;96462.22;;;9.68;56.00
11268;BME280;49397;47.474;9.416;2023-02-17T07:48:51;96459.09;;;9.90;55.46
11268;BME280;49397;47.474;9.416;2023-02-17T07:51:21;96457.09;;;10.10;55.21
11268;BME280;49397;47.474;9.416;2023-02-17T07:53:48;96460.16;;;10.32;53.68
11268;BME280;49397;47.474;9.416;2023-02-17T07:56:17;96453.56;;;10.43;53.37
11268;BME280;49397;47.474;9.416;2023-02-17T07:58:44;96463.53;;;10.53;52.65
11268;BME280;49397;47.474;9.416;2023-02-17T08:01:21;96457.19;;;10.62;52.56
11268;BME280;49397;47.474;9.416;2023-02-17T08:03:47;96452.41;;;10.78;51.58
11268;BME280;49397;47.474;9.416;2023-02-17T08:06:16;96454.75;;;10.90;52.52
11268;BME280;49397;47.474;9.416;2023-02-17T08:08:42;96456.50;;;11.04;52.14
11268;BME280;49397;47.474;9.416;2023-02-17T08:11:26;96459.94;;;11.10;51.17
11268;BME280;49397;47.474;9.416;2023-02-17T08:14:10;96455.97;;;11.26;50.37
11268;BME280;49397;47.474;9.416;2023-02-17T08:16:36;96453.41;;;11.34;50.47
11268;BME280;49397;47.474;9.416;2023-02-17T08:19:01;96451.59;;;11.30;50.93
11268;BME280;49397;47.474;9.416;2023-02-17T08:21:27;96466.38;;;11.42;50.61
11268;BME280;49397;47.474;9.416;2023-02-17T08:23:53;96471.66;;;11.52;50.09
11268;BME280;49397;47.474;9.416;2023-02-17T08:26:19;96472.13;;;11.59;50.19
11268;BME280;49397;47.474;9.416;2023-02-17T08:28:45;96475.88;;;11.63;50.28
11268;BME280;49397;47.474;9.416;2023-02-17T08:31:18;96468.50;;;11.69;50.81
11268;BME280;49397;47.474;9.416;2023-02-17T08:33:45;96465.41;;;11.75;49.91
11268;BME280;49397;47.474;9.416;2023-02-17T08:36:11;96473.56;;;11.75;50.63
11268;BME280;49397;47.474;9.416;2023-02-17T08:38:37;96477.00;;;11.81;50.67
11268;BME280;49397;47.474;9.416;2023-02-17T08:41:11;96483.84;;;11.78;51.02
11268;BME280;49397;47.474;9.416;2023-02-17T08:43:37;96491.94;;;11.83;50.64
11268;BME280;49397;47.474;9.416;2023-02-17T08:46:07;96496.22;;;11.89;50.89
11268;BME280;49397;47.474;9.416;2023-02-17T08:48:32;96502.19;;;11.91;51.11
11268;BME280;49397;47.474;9.416;2023-02-17T08:50:58;96492.63;;;11.94;51.03
11268;BME280;49397;47.474;9.416;2023-02-17T08:53:23;96501.00;;;11.97;50.91
11268;BME280;49397;47.474;9.416;2023-02-17T08:55:48;96501.72;;;12.03;51.10
11268;BME280;49397;47.474;9.416;2023-02-17T08:58:14;96502.69;;;12.12;50.84
11268;BME280;49397;47.474;9.416;2023-02-17T09:00:39;96500.19;;;12.15;50.50
11268;BME280;49397;47.474;9.416;2023-02-17T09:03:05;96503.41;;;12.17;50.45
11268;BME280;49397;47.474;9.416;2023-02-17T09:05:32;96507.25;;;12.16;50.27
11268;BME280;49397;47.474;9.416;2023-02-17T09:07:59;96515.13;;;12.18;50.78
11268;BME280;49397;47.474;9.416;2023-02-17T09:10:26;96512.91;;;12.20;50.51
11268;BME280;49397;47.474;9.416;2023-02-17T09:12:51;96511.00;;;12.20;50.82
11268;BME280;49397;47.474;9.416;2023-02-17T09:15:17;96503.72;;;12.16;50.87
11268;BME280;49397;47.474;9.416;2023-02-17T09:17:42;96508.63;;;12.14;50.86
11268;BME280;49397;47.474;9.416;2023-02-17T09:20:09;96501.34;;;12.09;50.20
11268;BME280;49397;47.474;9.416;2023-02-17T09:22:35;96508.06;;;12.17;50.45
11268;BME280;49397;47.474;9.416;2023-02-17T09:25:01;96512.69;;;12.16;51.01
11268;BME280;49397;47.474;9.416;2023-02-17T09:27:26;96506.66;;;12.19;49.75
11268;BME280;49397;47.474;9.416;2023-02-17T09:29:52;96500.41;;;12.19;49.85
11268;BME280;49397;47.474;9.416;2023-02-17T09:32:17;96505.13;;;12.32;50.46
11268;BME280;49397;47.474;9.416;2023-02-17T09:34:43;96511.31;;;12.38;50.26
11268;BME280;49397;47.474;9.416;2023-02-17T09:37:18;96507.50;;;12.52;50.14
11268;BME280;49397;47.474;9.416;2023-02-17T09:39:45;96506.53;;;12.62;49.33
11268;BME280;49397;47.474;9.416;2023-02-17T09:42:18;96511.97;;;12.80;48.97
11268;BME280;49397;47.474;9.416;2023-02-17T09:44:48;96515.16;;;12.82;49.04
11268;BME280;49397;47.474;9.416;2023-02-17T09:47:23;96518.13;;;12.86;49.66
11268;BME280;49397;47.474;9.416;2023-02-17T09:49:53;96509.50;;;12.79;48.59
11268;BME280;49397;47.474;9.416;2023-02-17T09:52:35;96517.50;;;12.75;48.23
11268;BME280;49397;47.474;9.416;2023-02-17T09:57:34;96533.63;;;13.04;47.73
11268;BME280;49397;47.474;9.416;2023-02-17T10:00:11;96531.84;;;13.26;47.57
11268;BME280;49397;47.474;9.416;2023-02-17T10:03:04;96533.25;;;13.24;47.20
11268;BME280;49397;47.474;9.416;2023-02-17T10:05:37;96527.78;;;13.10;47.73
11268;BME280;49397;47.474;9.416;2023-02-17T10:08:11;96529.63;;;12.96;46.42
11268;BME280;49397;47.474;9.416;2023-02-17T10:11:43;96527.09;;;12.86;46.73
11268;BME280;49397;47.474;9.416;2023-02-17T10:13:50;96540.19;;;12.84;47.11
11268;BME280;49397;47.474;9.416;2023-02-17T10:16:24;96555.00;;;12.78;46.99
11268;BME280;49397;47.474;9.416;2023-02-17T10:19:48;96526.56;;;12.71;48.09
11268;BME280;49397;47.474;9.416;2023-02-17T10:21:56;96545.75;;;12.61;48.83
11268;BME280;49397;47.474;9.416;2023-02-17T10:24:23;96521.72;;;12.49;50.31
11268;BME280;49397;47.474;9.416;2023-02-17T10:38:14;96529.13;;;13.26;51.34
11268;BME280;49397;47.474;9.416;2023-02-17T10:40:40;96526.91;;;13.28;50.11
11268;BME280;49397;47.474;9.416;2023-02-17T10:43:08;96528.31;;;13.26;50.71
11268;BME280;49397;47.474;9.416;2023-02-17T10:45:45;96547.41;;;13.26;50.15
11268;BME280;49397;47.474;9.416;2023-02-17T10:50:45;96517.34;;;12.99;49.19
11268;BME280;49397;47.474;9.416;2023-02-17T10:53:18;96522.75;;;13.17;49.07
11268;BME280;49397;47.474;9.416;2023-02-17T10:56:08;96520.25;;;13.21;48.69
11268;BME280;49397;47.474;9.416;2023-02-17T10:58:51;96511.38;;;13.29;48.79
11268;BME280;49397;47.474;9.416;2023-02-17T11:01:19;96517.44;;;12.94;50.40
11268;BME280;49397;47.474;9.416;2023-02-17T11:03:45;96515.34;;;13.04;50.03
11268;BME280;49397;47.474;9.416;2023-02-17T11:06:21;96512.03;;;13.07;49.20
11268;BME280;49397;47.474;9.416;2023-02-17T11:08:57;96510.03;;;13.13;49.58
11268;BME280;49397;47.474;9.416;2023-02-17T11:11:26;96505.59;;;13.17;49.16
11268;BME280;49397;47.474;9.416;2023-02-17T11:14:00;96515.09;;;13.19;48.48
11268;BME280;49397;47.474;9.416;2023-02-17T11:16:32;96507.75;;;13.33;48.41
11268;BME280;49397;47.474;9.416;2023-02-17T11:19:00;96492.91;;;13.39;47.70
11268;BME280;49397;47.474;9.416;2023-02-17T11:21:27;96494.31;;;13.50;48.13
11268;BME280;49397;47.474;9.416;2023-02-17T11:24:04;96488.16;;;13.58;49.05
11268;BME280;49397;47.474;9.416;2023-02-17T11:26:32;96493.72;;;13.40;48.67
11268;BME280;49397;47.474;9.416;2023-02-17T11:29:20;96483.50;;;13.45;48.48
11268;BME280;49397;47.474;9.416;2023-02-17T11:32:16;96486.84;;;13.56;48.13
11268;BME280;49397;47.474;9.416;2023-02-17T11:34:43;96488.25;;;13.40;48.22
11268;BME280;49397;47.474;9.416;2023-02-17T11:39:46;96491.88;;;13.76;48.68
11268;BME280;49397;47.474;9.416;2023-02-17T11:42:28;96489.84;;;13.82;47.94
11268;BME280;49397;47.474;9.416;2023-02-17T11:44:56;96481.94;;;13.80;47.74
11268;BME280;49397;47.474;9.416;2023-02-17T11:50:30;96486.31;;;13.40;49.53
11268;BME280;49397;47.474;9.416;2023-02-17T11:56:24;96478.75;;;13.37;50.07
11268;BME280;49397;47.474;9.416;2023-02-17T11:59:18;96480.78;;;13.32;50.37
11268;BME280;49397;47.474;9.416;2023-02-17T12:01:57;96479.38;;;13.48;50.39
11268;BME280;49397;47.474;9.416;2023-02-17T12:04:29;96461.19;;;13.30;51.10
11268;BME280;49397;47.474;9.416;2023-02-17T12:07:21;96468.56;;;13.29;51.32
11268;BME280;49397;47.474;9.416;2023-02-17T12:12:28;96459.19;;;13.35;50.92
11268;BME280;49397;47.474;9.416;2023-02-17T12:21:07;96459.31;;;13.93;50.13
11268;BME280;49397;47.474;9.416;2023-02-17T12:24:06;96466.19;;;13.77;49.78
11268;BME280;49397;47.474;9.416;2023-02-17T12:26:47;96450.97;;;13.62;49.50
11268;BME280;49397;47.474;9.416;2023-02-17T12:32:38;96450.88;;;13.67;49.32
11268;BME280;49397;47.474;9.416;2023-02-17T12:37:53;96444.69;;;13.76;48.41
11268;BME280;49397;47.474;9.416;2023-02-17T12:43:05;96441.97;;;13.76;48.85
11268;BME280;49397;47.474;9.416;2023-02-17T12:45:39;96445.81;;;13.75;49.01
11268;BME280;49397;47.474;9.416;2023-02-17T12:48:33;96446.03;;;13.78;48.37
11268;BME280;49397;47.474;9.416;2023-02-17T12:51:08;96449.47;;;13.70;50.02
11268;BME280;49397;47.474;9.416;2023-02-17T12:59:00;96437.34;;;13.62;51.18
11268;BME280;49397;47.474;9.416;2023-02-17T13:01:30;96436.66;;;13.57;49.38
11268;BME280;49397;47.474;9.416;2023-02-17T13:04:00;96428.06;;;13.63;49.86
11268;BME280;49397;47.474;9.416;2023-02-17T13:06:35;96426.16;;;13.64;49.01
11268;BME280;49397;47.474;9.416;2023-02-17T13:09:14;96415.09;;;13.69;49.62
11268;BME280;49397;47.474;9.416;2023-02-17T13:11:41;96412.28;;;13.74;49.58
11268;BME280;49397;47.474;9.416;2023-02-17T13:14:36;96416.06;;;13.87;49.02
11268;BME280;49397;47.474;9.416;2023-02-17T13:17:02;96423.94;;;13.88;49.81
11268;BME280;49397;47.474;9.416;2023-02-17T13:19:30;96430.94;;;13.81;49.91
11268;BME280;49397;47.474;9.416;2023-02-17T13:21:57;96420.25;;;13.84;50.31
11268;BME280;49397;47.474;9.416;2023-02-17T13:24:38;96419.22;;;13.80;49.37
11268;BME280;49397;47.474;9.416;2023-02-17T13:30:06;96415.16;;;13.91;50.06
11268;BME280;49397;47.474;9.416;2023-02-17T13:32:36;96420.38;;;14.01;50.49
11268;BME280;49397;47.474;9.416;2023-02-17T13:35:16;96425.84;;;14.01;50.51
11268;BME280;49397;47.474;9.416;2023-02-17T13:37:52;96420.28;;;14.06;49.47
11268;BME280;49397;47.474;9.416;2023-02-17T13:42:48;96422.31;;;14.23;49.23
11268;BME280;49397;47.474;9.416;2023-02-17T13:48:33;96431.25;;;14.15;49.90
11268;BME280;49397;47.474;9.416;2023-02-17T13:51:07;96435.59;;;14.16;48.80
11268;BME280;49397;47.474;9.416;2023-02-17T13:53:50;96432.47;;;14.09;48.80
11268;BME280;49397;47.474;9.416;2023-02-17T13:56:27;96435.41;;;14.12;49.29
11268;BME280;49397;47.474;9.416;2023-02-17T13:58:54;96437.16;;;14.08;49.61
11268;BME280;49397;47.474;9.416;2023-02-17T14:01:30;96435.16;;;14.00;49.15
11268;BME280;49397;47.474;9.416;2023-02-17T14:03:56;96434.25;;;13.91;49.82
11268;BME280;49397;47.474;9.416;2023-02-17T14:06:35;96433.63;;;13.94;49.66
11268;BME280;49397;47.474;9.416;2023-02-17T14:09:20;96435.53;;;14.07;50.18
11268;BME280;49397;47.474;9.416;2023-02-17T14:11:47;96436.66;;;14.06;49.12
11268;BME280;49397;47.474;9.416;2023-02-17T14:14:13;96436.66;;;14.06;49.66
11268;BME280;49397;47.474;9.416;2023-02-17T14:16:41;96438.56;;;14.06;49.33
11268;BME280;49397;47.474;9.416;2023-02-17T14:19:11;96433.41;;;14.04;49.85
11268;BME280;49397;47.474;9.416;2023-02-17T14:21:42;96430.72;;;13.91;49.85
11268;BME280;49397;47.474;9.416;2023-02-17T14:24:24;96436.19;;;13.91;49.92
11268;BME280;49397;47.474;9.416;2023-02-17T14:26:49;96440.94;;;13.85;49.95
11268;BME280;49397;47.474;9.416;2023-02-17T14:29:19;96434.75;;;13.93;50.30